Terminal Aerodrome Forecast
Issued by NWS Sterling, VA

Home | Current Version | Previous Version | Text Only | Print | Product List | Glossary On
Versions: 1 2 3 4 5 6 7 8 9 10 11 12 13 14 15 16 17 18 19 20 21
112
FTUS41 KLWX 261120
TAFIAD
TAF
KIAD 261120Z 2612/2718 29004KT P6SM FEW040
     FM261500 32008KT P6SM FEW250
     FM270200 35004KT P6SM SCT250
     FM270600 VRB03KT 5SM BR FEW060
     FM270900 VRB04KT P6SM FEW250=

USA.gov is the U.S. government's official web portal to all federal, state and local government web resources and services.